sensor_id;sensor_type;location;lat;lon;timestamp;P1;durP1;ratioP1;P2;durP2;ratioP2
32228;SDS011;18717;48.034;11.186;2023-03-12T00:00:10;8.85;;;8.15;;
32228;SDS011;18717;48.034;11.186;2023-03-12T00:02:39;9.52;;;8.57;;
32228;SDS011;18717;48.034;11.186;2023-03-12T00:05:07;11.82;;;9.70;;
32228;SDS011;18717;48.034;11.186;2023-03-12T00:07:36;10.18;;;9.27;;
32228;SDS011;18717;48.034;11.186;2023-03-12T00:10:04;9.80;;;8.63;;
32228;SDS011;18717;48.034;11.186;2023-03-12T00:12:33;10.18;;;9.05;;
32228;SDS011;18717;48.034;11.186;2023-03-12T00:15:01;11.02;;;8.73;;
32228;SDS011;18717;48.034;11.186;2023-03-12T00:17:28;12.80;;;8.68;;
32228;SDS011;18717;48.034;11.186;2023-03-12T00:19:56;9.45;;;8.60;;
32228;SDS011;18717;48.034;11.186;2023-03-12T00:22:24;8.75;;;8.05;;
32228;SDS011;18717;48.034;11.186;2023-03-12T00:24:54;9.20;;;8.32;;
32228;SDS011;18717;48.034;11.186;2023-03-12T00:27:23;8.63;;;7.80;;
32228;SDS011;18717;48.034;11.186;2023-03-12T00:29:51;8.18;;;7.50;;
32228;SDS011;18717;48.034;11.186;2023-03-12T00:32:19;8.90;;;8.20;;
32228;SDS011;18717;48.034;11.186;2023-03-12T00:34:49;10.88;;;7.95;;
32228;SDS011;18717;48.034;11.186;2023-03-12T00:37:17;10.93;;;8.85;;
32228;SDS011;18717;48.034;11.186;2023-03-12T00:39:44;10.50;;;8.60;;
32228;SDS011;18717;48.034;11.186;2023-03-12T00:42:13;9.88;;;8.90;;
32228;SDS011;18717;48.034;11.186;2023-03-12T00:44:41;9.43;;;8.05;;
32228;SDS011;18717;48.034;11.186;2023-03-12T00:47:09;9.25;;;8.55;;
32228;SDS011;18717;48.034;11.186;2023-03-12T00:49:37;10.38;;;9.38;;
32228;SDS011;18717;48.034;11.186;2023-03-12T00:52:05;9.65;;;8.55;;
32228;SDS011;18717;48.034;11.186;2023-03-12T00:54:33;9.93;;;8.52;;
32228;SDS011;18717;48.034;11.186;2023-03-12T00:57:01;10.13;;;8.52;;
32228;SDS011;18717;48.034;11.186;2023-03-12T00:59:30;9.70;;;8.70;;
32228;SDS011;18717;48.034;11.186;2023-03-12T01:01:58;9.20;;;8.40;;
32228;SDS011;18717;48.034;11.186;2023-03-12T01:04:25;9.98;;;8.98;;
32228;SDS011;18717;48.034;11.186;2023-03-12T01:06:53;10.18;;;8.88;;
32228;SDS011;18717;48.034;11.186;2023-03-12T01:09:21;9.95;;;8.98;;
32228;SDS011;18717;48.034;11.186;2023-03-12T01:11:49;9.45;;;8.13;;
32228;SDS011;18717;48.034;11.186;2023-03-12T01:14:17;10.85;;;9.25;;
32228;SDS011;18717;48.034;11.186;2023-03-12T01:16:46;11.18;;;9.38;;
32228;SDS011;18717;48.034;11.186;2023-03-12T01:19:17;12.00;;;8.70;;
32228;SDS011;18717;48.034;11.186;2023-03-12T01:21:44;9.48;;;8.43;;
32228;SDS011;18717;48.034;11.186;2023-03-12T01:24:12;10.75;;;9.02;;
32228;SDS011;18717;48.034;11.186;2023-03-12T01:26:40;10.13;;;9.13;;
32228;SDS011;18717;48.034;11.186;2023-03-12T01:29:07;10.07;;;8.50;;
32228;SDS011;18717;48.034;11.186;2023-03-12T01:31:35;9.75;;;8.95;;
32228;SDS011;18717;48.034;11.186;2023-03-12T01:34:04;9.30;;;8.50;;
32228;SDS011;18717;48.034;11.186;2023-03-12T01:36:32;11.02;;;9.00;;
32228;SDS011;18717;48.034;11.186;2023-03-12T01:39:00;15.05;;;8.68;;
32228;SDS011;18717;48.034;11.186;2023-03-12T01:41:29;9.15;;;8.30;;
32228;SDS011;18717;48.034;11.186;2023-03-12T01:43:58;10.23;;;9.32;;
32228;SDS011;18717;48.034;11.186;2023-03-12T01:46:29;9.07;;;8.38;;
32228;SDS011;18717;48.034;11.186;2023-03-12T01:48:59;9.85;;;8.43;;
32228;SDS011;18717;48.034;11.186;2023-03-12T01:51:32;10.77;;;9.68;;
32228;SDS011;18717;48.034;11.186;2023-03-12T01:54:04;10.00;;;9.07;;
32228;SDS011;18717;48.034;11.186;2023-03-12T01:56:34;12.13;;;9.90;;
32228;SDS011;18717;48.034;11.186;2023-03-12T01:59:04;11.52;;;10.32;;
32228;SDS011;18717;48.034;11.186;2023-03-12T02:01:34;11.85;;;10.63;;
32228;SDS011;18717;48.034;11.186;2023-03-12T02:04:01;11.70;;;9.68;;
32228;SDS011;18717;48.034;11.186;2023-03-12T02:06:33;13.00;;;9.77;;
32228;SDS011;18717;48.034;11.186;2023-03-12T02:09:03;12.25;;;10.63;;
32228;SDS011;18717;48.034;11.186;2023-03-12T02:11:32;13.50;;;10.60;;
32228;SDS011;18717;48.034;11.186;2023-03-12T02:14:00;12.75;;;10.40;;
32228;SDS011;18717;48.034;11.186;2023-03-12T02:16:28;13.30;;;12.00;;
32228;SDS011;18717;48.034;11.186;2023-03-12T02:18:56;14.85;;;10.55;;
32228;SDS011;18717;48.034;11.186;2023-03-12T02:21:27;15.20;;;12.30;;
32228;SDS011;18717;48.034;11.186;2023-03-12T02:24:04;13.80;;;11.35;;
32228;SDS011;18717;48.034;11.186;2023-03-12T02:26:36;12.32;;;11.07;;
32228;SDS011;18717;48.034;11.186;2023-03-12T02:29:04;13.98;;;11.95;;
32228;SDS011;18717;48.034;11.186;2023-03-12T02:31:34;14.65;;;10.48;;
32228;SDS011;18717;48.034;11.186;2023-03-12T02:34:04;14.00;;;11.48;;
32228;SDS011;18717;48.034;11.186;2023-03-12T02:36:32;12.00;;;10.80;;
32228;SDS011;18717;48.034;11.186;2023-03-12T02:39:00;13.38;;;12.02;;
32228;SDS011;18717;48.034;11.186;2023-03-12T02:41:28;12.98;;;11.77;;
32228;SDS011;18717;48.034;11.186;2023-03-12T02:44:01;11.88;;;10.77;;
32228;SDS011;18717;48.034;11.186;2023-03-12T02:46:32;14.60;;;11.88;;
32228;SDS011;18717;48.034;11.186;2023-03-12T02:49:01;11.50;;;10.45;;
32228;SDS011;18717;48.034;11.186;2023-03-12T02:51:29;13.05;;;10.93;;
32228;SDS011;18717;48.034;11.186;2023-03-12T02:53:57;11.95;;;10.15;;
32228;SDS011;18717;48.034;11.186;2023-03-12T02:56:25;12.63;;;11.43;;
32228;SDS011;18717;48.034;11.186;2023-03-12T02:58:54;11.73;;;10.52;;
32228;SDS011;18717;48.034;11.186;2023-03-12T03:01:23;12.20;;;10.85;;
32228;SDS011;18717;48.034;11.186;2023-03-12T03:03:51;12.07;;;10.88;;
32228;SDS011;18717;48.034;11.186;2023-03-12T03:06:19;12.02;;;10.80;;
32228;SDS011;18717;48.034;11.186;2023-03-12T03:08:47;11.68;;;10.55;;
32228;SDS011;18717;48.034;11.186;2023-03-12T03:11:15;12.88;;;10.65;;
32228;SDS011;18717;48.034;11.186;2023-03-12T03:13:42;11.98;;;10.68;;
32228;SDS011;18717;48.034;11.186;2023-03-12T03:16:10;11.80;;;10.63;;
32228;SDS011;18717;48.034;11.186;2023-03-12T03:18:40;13.23;;;11.00;;
32228;SDS011;18717;48.034;11.186;2023-03-12T03:21:08;12.82;;;11.52;;
32228;SDS011;18717;48.034;11.186;2023-03-12T03:23:41;21.20;;;14.35;;
32228;SDS011;18717;48.034;11.186;2023-03-12T03:26:10;16.20;;;12.32;;
32228;SDS011;18717;48.034;11.186;2023-03-12T03:28:38;16.88;;;12.27;;
32228;SDS011;18717;48.034;11.186;2023-03-12T03:31:05;15.88;;;11.88;;
32228;SDS011;18717;48.034;11.186;2023-03-12T03:33:34;12.73;;;11.43;;
32228;SDS011;18717;48.034;11.186;2023-03-12T03:36:05;14.77;;;10.88;;
32228;SDS011;18717;48.034;11.186;2023-03-12T03:38:33;14.50;;;11.50;;
32228;SDS011;18717;48.034;11.186;2023-03-12T03:41:01;11.45;;;10.20;;
32228;SDS011;18717;48.034;11.186;2023-03-12T03:43:29;13.85;;;11.75;;
32228;SDS011;18717;48.034;11.186;2023-03-12T03:45:57;12.18;;;10.88;;
32228;SDS011;18717;48.034;11.186;2023-03-12T03:48:26;11.45;;;10.23;;
32228;SDS011;18717;48.034;11.186;2023-03-12T03:50:54;12.43;;;10.88;;
32228;SDS011;18717;48.034;11.186;2023-03-12T03:55:55;14.00;;;9.50;;
32228;SDS011;18717;48.034;11.186;2023-03-12T03:58:22;14.43;;;10.52;;
32228;SDS011;18717;48.034;11.186;2023-03-12T04:00:50;11.32;;;10.20;;
32228;SDS011;18717;48.034;11.186;2023-03-12T04:03:17;12.88;;;10.32;;
32228;SDS011;18717;48.034;11.186;2023-03-12T04:05:45;14.88;;;10.98;;
32228;SDS011;18717;48.034;11.186;2023-03-12T04:08:13;13.60;;;10.57;;
32228;SDS011;18717;48.034;11.186;2023-03-12T04:10:42;12.63;;;11.43;;
32228;SDS011;18717;48.034;11.186;2023-03-12T04:13:10;13.85;;;11.73;;
32228;SDS011;18717;48.034;11.186;2023-03-12T04:15:37;15.70;;;12.23;;
32228;SDS011;18717;48.034;11.186;2023-03-12T04:18:05;12.48;;;11.05;;
32228;SDS011;18717;48.034;11.186;2023-03-12T04:20:33;13.77;;;11.52;;
32228;SDS011;18717;48.034;11.186;2023-03-12T04:23:00;13.65;;;12.13;;
32228;SDS011;18717;48.034;11.186;2023-03-12T04:25:28;12.32;;;11.00;;
32228;SDS011;18717;48.034;11.186;2023-03-12T04:27:58;13.98;;;12.20;;
32228;SDS011;18717;48.034;11.186;2023-03-12T04:30:26;15.82;;;11.25;;
32228;SDS011;18717;48.034;11.186;2023-03-12T04:32:54;12.82;;;11.57;;
32228;SDS011;18717;48.034;11.186;2023-03-12T04:35:22;11.73;;;10.63;;
32228;SDS011;18717;48.034;11.186;2023-03-12T04:37:50;12.40;;;10.95;;
32228;SDS011;18717;48.034;11.186;2023-03-12T04:40:17;12.73;;;10.88;;
32228;SDS011;18717;48.034;11.186;2023-03-12T04:42:45;12.63;;;10.82;;
32228;SDS011;18717;48.034;11.186;2023-03-12T04:45:14;13.85;;;10.20;;
32228;SDS011;18717;48.034;11.186;2023-03-12T04:47:42;14.57;;;10.68;;
32228;SDS011;18717;48.034;11.186;2023-03-12T04:50:10;11.00;;;9.88;;
32228;SDS011;18717;48.034;11.186;2023-03-12T04:52:38;12.18;;;11.02;;
32228;SDS011;18717;48.034;11.186;2023-03-12T04:55:07;12.48;;;10.73;;
32228;SDS011;18717;48.034;11.186;2023-03-12T04:57:35;11.55;;;10.35;;
32228;SDS011;18717;48.034;11.186;2023-03-12T05:00:03;12.00;;;10.73;;
32228;SDS011;18717;48.034;11.186;2023-03-12T05:02:37;11.95;;;10.63;;
32228;SDS011;18717;48.034;11.186;2023-03-12T05:05:05;16.40;;;12.23;;
32228;SDS011;18717;48.034;11.186;2023-03-12T05:07:34;12.55;;;11.25;;
32228;SDS011;18717;48.034;11.186;2023-03-12T05:10:02;13.27;;;10.63;;
32228;SDS011;18717;48.034;11.186;2023-03-12T05:12:30;10.95;;;9.70;;
32228;SDS011;18717;48.034;11.186;2023-03-12T05:14:58;12.00;;;10.88;;
32228;SDS011;18717;48.034;11.186;2023-03-12T05:17:25;12.77;;;10.80;;
32228;SDS011;18717;48.034;11.186;2023-03-12T05:19:54;10.82;;;9.73;;
32228;SDS011;18717;48.034;11.186;2023-03-12T05:22:22;11.00;;;10.00;;
32228;SDS011;18717;48.034;11.186;2023-03-12T05:24:50;11.20;;;9.88;;
32228;SDS011;18717;48.034;11.186;2023-03-12T05:27:17;10.30;;;8.88;;
32228;SDS011;18717;48.034;11.186;2023-03-12T05:29:45;9.27;;;8.38;;
32228;SDS011;18717;48.034;11.186;2023-03-12T05:32:13;10.43;;;9.43;;
32228;SDS011;18717;48.034;11.186;2023-03-12T05:34:41;9.55;;;8.65;;
32228;SDS011;18717;48.034;11.186;2023-03-12T05:37:10;9.90;;;8.75;;
32228;SDS011;18717;48.034;11.186;2023-03-12T05:39:37;9.30;;;8.50;;
32228;SDS011;18717;48.034;11.186;2023-03-12T05:42:12;9.85;;;8.90;;
32228;SDS011;18717;48.034;11.186;2023-03-12T05:44:40;9.85;;;8.18;;
32228;SDS011;18717;48.034;11.186;2023-03-12T05:47:07;9.60;;;8.77;;
32228;SDS011;18717;48.034;11.186;2023-03-12T05:49:35;11.07;;;8.88;;
32228;SDS011;18717;48.034;11.186;2023-03-12T05:52:03;9.05;;;8.25;;
32228;SDS011;18717;48.034;11.186;2023-03-12T05:54:32;8.32;;;7.63;;
32228;SDS011;18717;48.034;11.186;2023-03-12T05:57:00;9.80;;;8.38;;
32228;SDS011;18717;48.034;11.186;2023-03-12T05:59:28;9.75;;;8.60;;
32228;SDS011;18717;48.034;11.186;2023-03-12T06:01:56;11.40;;;8.00;;
32228;SDS011;18717;48.034;11.186;2023-03-12T06:04:24;8.85;;;8.05;;
32228;SDS011;18717;48.034;11.186;2023-03-12T06:06:51;8.38;;;7.68;;
32228;SDS011;18717;48.034;11.186;2023-03-12T06:09:19;8.95;;;8.05;;
32228;SDS011;18717;48.034;11.186;2023-03-12T06:11:48;8.77;;;7.75;;
32228;SDS011;18717;48.034;11.186;2023-03-12T06:14:16;9.80;;;8.75;;
32228;SDS011;18717;48.034;11.186;2023-03-12T06:16:43;9.45;;;8.65;;
32228;SDS011;18717;48.034;11.186;2023-03-12T06:19:11;10.73;;;9.93;;
32228;SDS011;18717;48.034;11.186;2023-03-12T06:21:41;10.00;;;8.80;;
32228;SDS011;18717;48.034;11.186;2023-03-12T06:24:09;8.63;;;8.05;;
32228;SDS011;18717;48.034;11.186;2023-03-12T06:26:37;9.35;;;8.55;;
32228;SDS011;18717;48.034;11.186;2023-03-12T06:29:07;10.93;;;9.07;;
32228;SDS011;18717;48.034;11.186;2023-03-12T06:31:34;12.85;;;8.77;;
32228;SDS011;18717;48.034;11.186;2023-03-12T06:34:04;12.88;;;8.13;;
32228;SDS011;18717;48.034;11.186;2023-03-12T06:36:32;10.52;;;9.38;;
32228;SDS011;18717;48.034;11.186;2023-03-12T06:38:59;9.30;;;8.30;;
32228;SDS011;18717;48.034;11.186;2023-03-12T06:41:27;9.68;;;8.98;;
32228;SDS011;18717;48.034;11.186;2023-03-12T06:43:55;9.38;;;8.48;;
32228;SDS011;18717;48.034;11.186;2023-03-12T06:46:25;9.50;;;8.60;;
32228;SDS011;18717;48.034;11.186;2023-03-12T06:48:53;9.35;;;8.30;;
32228;SDS011;18717;48.034;11.186;2023-03-12T06:51:20;9.93;;;9.18;;
32228;SDS011;18717;48.034;11.186;2023-03-12T06:53:48;9.45;;;8.63;;
32228;SDS011;18717;48.034;11.186;2023-03-12T06:56:16;10.18;;;8.80;;
32228;SDS011;18717;48.034;11.186;2023-03-12T06:58:43;9.70;;;8.80;;
32228;SDS011;18717;48.034;11.186;2023-03-12T07:01:11;10.07;;;8.95;;
32228;SDS011;18717;48.034;11.186;2023-03-12T07:03:40;11.32;;;9.13;;
32228;SDS011;18717;48.034;11.186;2023-03-12T07:06:11;10.05;;;9.15;;
32228;SDS011;18717;48.034;11.186;2023-03-12T07:08:40;9.15;;;8.35;;
32228;SDS011;18717;48.034;11.186;2023-03-12T07:11:08;10.23;;;9.30;;
32228;SDS011;18717;48.034;11.186;2023-03-12T07:13:36;10.05;;;9.05;;
32228;SDS011;18717;48.034;11.186;2023-03-12T07:16:04;13.50;;;10.30;;
32228;SDS011;18717;48.034;11.186;2023-03-12T07:18:33;11.55;;;10.00;;
32228;SDS011;18717;48.034;11.186;2023-03-12T07:21:02;10.85;;;9.80;;
32228;SDS011;18717;48.034;11.186;2023-03-12T07:23:30;12.70;;;10.65;;
32228;SDS011;18717;48.034;11.186;2023-03-12T07:25:57;10.98;;;9.98;;
32228;SDS011;18717;48.034;11.186;2023-03-12T07:28:25;13.27;;;11.27;;
32228;SDS011;18717;48.034;11.186;2023-03-12T07:30:58;13.82;;;10.48;;
32228;SDS011;18717;48.034;11.186;2023-03-12T07:33:26;11.50;;;9.70;;
32228;SDS011;18717;48.034;11.186;2023-03-12T07:35:54;12.13;;;10.43;;
32228;SDS011;18717;48.034;11.186;2023-03-12T07:38:23;11.35;;;9.57;;
32228;SDS011;18717;48.034;11.186;2023-03-12T07:40:52;12.10;;;10.90;;
32228;SDS011;18717;48.034;11.186;2023-03-12T07:43:20;11.75;;;10.45;;
32228;SDS011;18717;48.034;11.186;2023-03-12T07:45:48;11.13;;;9.85;;
32228;SDS011;18717;48.034;11.186;2023-03-12T07:48:16;11.02;;;9.98;;
32228;SDS011;18717;48.034;11.186;2023-03-12T07:50:45;10.38;;;9.30;;
32228;SDS011;18717;48.034;11.186;2023-03-12T07:53:12;11.82;;;10.82;;
32228;SDS011;18717;48.034;11.186;2023-03-12T07:55:42;11.60;;;10.40;;
32228;SDS011;18717;48.034;11.186;2023-03-12T07:58:10;11.32;;;10.18;;
32228;SDS011;18717;48.034;11.186;2023-03-12T08:00:39;11.93;;;10.55;;
32228;SDS011;18717;48.034;11.186;2023-03-12T08:03:06;12.25;;;11.15;;
32228;SDS011;18717;48.034;11.186;2023-03-12T08:05:34;10.95;;;9.60;;
32228;SDS011;18717;48.034;11.186;2023-03-12T08:08:02;10.30;;;9.38;;
32228;SDS011;18717;48.034;11.186;2023-03-12T08:10:30;11.25;;;10.15;;
32228;SDS011;18717;48.034;11.186;2023-03-12T08:12:59;10.80;;;9.80;;
32228;SDS011;18717;48.034;11.186;2023-03-12T08:15:27;17.92;;;11.55;;
32228;SDS011;18717;48.034;11.186;2023-03-12T08:17:54;13.57;;;12.20;;
32228;SDS011;18717;48.034;11.186;2023-03-12T08:20:22;12.23;;;10.75;;
32228;SDS011;18717;48.034;11.186;2023-03-12T08:22:50;9.70;;;8.73;;
32228;SDS011;18717;48.034;11.186;2023-03-12T08:25:18;9.57;;;8.68;;
32228;SDS011;18717;48.034;11.186;2023-03-12T08:27:46;9.82;;;9.05;;
32228;SDS011;18717;48.034;11.186;2023-03-12T08:30:15;9.23;;;8.43;;
32228;SDS011;18717;48.034;11.186;2023-03-12T08:32:43;10.57;;;9.68;;
32228;SDS011;18717;48.034;11.186;2023-03-12T08:35:11;9.25;;;8.52;;
32228;SDS011;18717;48.034;11.186;2023-03-12T08:37:38;11.55;;;10.30;;
32228;SDS011;18717;48.034;11.186;2023-03-12T08:40:07;15.23;;;11.48;;
32228;SDS011;18717;48.034;11.186;2023-03-12T08:42:38;9.07;;;8.18;;
32228;SDS011;18717;48.034;11.186;2023-03-12T08:45:07;13.88;;;11.95;;
32228;SDS011;18717;48.034;11.186;2023-03-12T08:47:36;11.02;;;9.30;;
32228;SDS011;18717;48.034;11.186;2023-03-12T08:50:07;14.43;;;12.93;;
32228;SDS011;18717;48.034;11.186;2023-03-12T08:52:35;9.90;;;9.20;;
32228;SDS011;18717;48.034;11.186;2023-03-12T08:55:03;10.00;;;9.30;;
32228;SDS011;18717;48.034;11.186;2023-03-12T08:57:32;8.82;;;8.18;;
32228;SDS011;18717;48.034;11.186;2023-03-12T08:59:59;9.35;;;8.65;;
32228;SDS011;18717;48.034;11.186;2023-03-12T09:02:27;9.48;;;8.70;;
32228;SDS011;18717;48.034;11.186;2023-03-12T09:04:56;9.13;;;8.52;;
32228;SDS011;18717;48.034;11.186;2023-03-12T09:07:23;8.90;;;8.23;;
32228;SDS011;18717;48.034;11.186;2023-03-12T09:09:53;8.80;;;8.20;;
32228;SDS011;18717;48.034;11.186;2023-03-12T09:12:20;9.70;;;8.90;;
32228;SDS011;18717;48.034;11.186;2023-03-12T09:14:48;10.20;;;9.20;;
32228;SDS011;18717;48.034;11.186;2023-03-12T09:17:29;9.57;;;8.77;;
32228;SDS011;18717;48.034;11.186;2023-03-12T09:19:58;9.13;;;8.35;;
32228;SDS011;18717;48.034;11.186;2023-03-12T09:22:27;8.93;;;8.23;;
32228;SDS011;18717;48.034;11.186;2023-03-12T09:24:55;10.20;;;9.40;;
32228;SDS011;18717;48.034;11.186;2023-03-12T09:27:23;9.13;;;8.43;;
32228;SDS011;18717;48.034;11.186;2023-03-12T09:29:52;17.25;;;15.60;;
32228;SDS011;18717;48.034;11.186;2023-03-12T09:32:26;12.45;;;11.35;;
32228;SDS011;18717;48.034;11.186;2023-03-12T09:34:54;10.93;;;10.00;;
32228;SDS011;18717;48.034;11.186;2023-03-12T09:37:23;10.00;;;9.30;;
32228;SDS011;18717;48.034;11.186;2023-03-12T09:39:51;11.10;;;10.13;;
32228;SDS011;18717;48.034;11.186;2023-03-12T09:42:21;11.50;;;10.43;;
32228;SDS011;18717;48.034;11.186;2023-03-12T09:44:50;12.40;;;11.15;;
32228;SDS011;18717;48.034;11.186;2023-03-12T09:47:22;12.60;;;11.40;;
32228;SDS011;18717;48.034;11.186;2023-03-12T09:49:52;10.98;;;9.88;;
32228;SDS011;18717;48.034;11.186;2023-03-12T09:52:24;17.75;;;15.63;;
32228;SDS011;18717;48.034;11.186;2023-03-12T09:54:55;11.90;;;10.88;;
32228;SDS011;18717;48.034;11.186;2023-03-12T09:57:26;10.82;;;9.93;;
32228;SDS011;18717;48.034;11.186;2023-03-12T09:59:55;10.43;;;9.52;;
32228;SDS011;18717;48.034;11.186;2023-03-12T10:02:36;9.10;;;8.38;;
32228;SDS011;18717;48.034;11.186;2023-03-12T10:05:13;11.35;;;10.35;;
32228;SDS011;18717;48.034;11.186;2023-03-12T10:13:14;7.88;;;7.38;;
32228;SDS011;18717;48.034;11.186;2023-03-12T10:15:47;8.55;;;7.97;;
32228;SDS011;18717;48.034;11.186;2023-03-12T10:18:26;8.55;;;8.05;;
32228;SDS011;18717;48.034;11.186;2023-03-12T10:21:03;8.10;;;7.63;;
32228;SDS011;18717;48.034;11.186;2023-03-12T10:23:40;7.63;;;7.22;;
32228;SDS011;18717;48.034;11.186;2023-03-12T10:26:15;8.50;;;8.00;;
32228;SDS011;18717;48.034;11.186;2023-03-12T10:28:47;7.55;;;7.05;;
32228;SDS011;18717;48.034;11.186;2023-03-12T10:31:17;7.82;;;7.40;;
32228;SDS011;18717;48.034;11.186;2023-03-12T10:33:49;6.90;;;6.50;;
32228;SDS011;18717;48.034;11.186;2023-03-12T10:36:19;7.75;;;7.35;;
32228;SDS011;18717;48.034;11.186;2023-03-12T10:38:49;7.80;;;7.30;;
32228;SDS011;18717;48.034;11.186;2023-03-12T10:41:18;8.45;;;7.95;;
32228;SDS011;18717;48.034;11.186;2023-03-12T10:43:47;9.32;;;8.63;;
32228;SDS011;18717;48.034;11.186;2023-03-12T10:46:25;9.95;;;9.18;;
32228;SDS011;18717;48.034;11.186;2023-03-12T10:51:56;9.77;;;9.07;;
32228;SDS011;18717;48.034;11.186;2023-03-12T10:54:30;12.10;;;9.85;;
32228;SDS011;18717;48.034;11.186;2023-03-12T10:57:00;10.93;;;9.82;;
32228;SDS011;18717;48.034;11.186;2023-03-12T10:59:29;10.43;;;9.52;;
32228;SDS011;18717;48.034;11.186;2023-03-12T11:01:57;10.93;;;10.13;;
32228;SDS011;18717;48.034;11.186;2023-03-12T11:04:27;10.40;;;9.55;;
32228;SDS011;18717;48.034;11.186;2023-03-12T11:09:52;10.48;;;9.65;;
32228;SDS011;18717;48.034;11.186;2023-03-12T11:15:37;12.20;;;11.00;;
32228;SDS011;18717;48.034;11.186;2023-03-12T11:20:53;25.20;;;14.70;;
32228;SDS011;18717;48.034;11.186;2023-03-12T11:23:24;22.92;;;14.30;;
32228;SDS011;18717;48.034;11.186;2023-03-12T11:25:57;30.80;;;17.05;;
32228;SDS011;18717;48.034;11.186;2023-03-12T11:28:31;12.93;;;10.52;;
32228;SDS011;18717;48.034;11.186;2023-03-12T11:31:02;14.75;;;10.73;;
32228;SDS011;18717;48.034;11.186;2023-03-12T11:33:32;11.65;;;10.43;;
32228;SDS011;18717;48.034;11.186;2023-03-12T11:36:04;24.75;;;16.17;;
32228;SDS011;18717;48.034;11.186;2023-03-12T11:38:37;12.70;;;11.60;;
32228;SDS011;18717;48.034;11.186;2023-03-12T11:41:13;8.77;;;7.97;;
32228;SDS011;18717;48.034;11.186;2023-03-12T11:43:53;13.10;;;11.75;;
32228;SDS011;18717;48.034;11.186;2023-03-12T11:46:29;11.95;;;10.95;;
32228;SDS011;18717;48.034;11.186;2023-03-12T11:49:05;12.40;;;11.13;;
32228;SDS011;18717;48.034;11.186;2023-03-12T11:51:40;10.82;;;9.93;;
32228;SDS011;18717;48.034;11.186;2023-03-12T11:54:16;11.70;;;9.85;;
32228;SDS011;18717;48.034;11.186;2023-03-12T11:56:54;11.52;;;10.73;;
32228;SDS011;18717;48.034;11.186;2023-03-12T11:59:29;15.93;;;14.23;;
32228;SDS011;18717;48.034;11.186;2023-03-12T12:02:10;12.25;;;11.30;;
32228;SDS011;18717;48.034;11.186;2023-03-12T12:07:35;11.95;;;11.05;;
32228;SDS011;18717;48.034;11.186;2023-03-12T12:10:12;11.85;;;10.82;;
32228;SDS011;18717;48.034;11.186;2023-03-12T12:12:49;12.57;;;11.55;;
32228;SDS011;18717;48.034;11.186;2023-03-12T12:15:24;10.73;;;10.02;;
32228;SDS011;18717;48.034;11.186;2023-03-12T12:18:01;11.02;;;10.13;;
32228;SDS011;18717;48.034;11.186;2023-03-12T12:20:38;10.30;;;9.60;;
32228;SDS011;18717;48.034;11.186;2023-03-12T12:23:16;9.50;;;8.80;;
32228;SDS011;18717;48.034;11.186;2023-03-12T12:25:48;9.45;;;8.85;;
32228;SDS011;18717;48.034;11.186;2023-03-12T12:28:29;8.00;;;7.60;;
32228;SDS011;18717;48.034;11.186;2023-03-12T12:31:28;8.35;;;7.65;;
32228;SDS011;18717;48.034;11.186;2023-03-12T12:34:14;9.23;;;8.57;;
32228;SDS011;18717;48.034;11.186;2023-03-12T12:36:49;10.90;;;8.65;;
32228;SDS011;18717;48.034;11.186;2023-03-12T12:39:22;10.00;;;8.80;;
32228;SDS011;18717;48.034;11.186;2023-03-12T12:41:56;8.93;;;8.20;;
32228;SDS011;18717;48.034;11.186;2023-03-12T12:44:31;9.23;;;8.57;;
32228;SDS011;18717;48.034;11.186;2023-03-12T12:49:32;9.23;;;8.38;;
32228;SDS011;18717;48.034;11.186;2023-03-12T12:52:04;9.77;;;8.93;;
32228;SDS011;18717;48.034;11.186;2023-03-12T12:54:34;8.63;;;8.13;;
32228;SDS011;18717;48.034;11.186;2023-03-12T12:57:14;9.02;;;8.32;;
32228;SDS011;18717;48.034;11.186;2023-03-12T12:59:50;8.55;;;8.07;;
32228;SDS011;18717;48.034;11.186;2023-03-12T13:02:30;9.68;;;9.05;;
32228;SDS011;18717;48.034;11.186;2023-03-12T13:04:59;9.50;;;8.80;;
32228;SDS011;18717;48.034;11.186;2023-03-12T13:07:29;9.05;;;8.40;;
32228;SDS011;18717;48.034;11.186;2023-03-12T13:09:59;9.32;;;8.80;;
32228;SDS011;18717;48.034;11.186;2023-03-12T13:12:34;9.18;;;8.43;;
32228;SDS011;18717;48.034;11.186;2023-03-12T13:15:31;9.85;;;9.25;;
32228;SDS011;18717;48.034;11.186;2023-03-12T13:18:02;8.77;;;8.23;;
32228;SDS011;18717;48.034;11.186;2023-03-12T13:20:35;9.20;;;8.40;;
32228;SDS011;18717;48.034;11.186;2023-03-12T13:23:15;8.82;;;8.32;;
32228;SDS011;18717;48.034;11.186;2023-03-12T13:25:53;9.93;;;9.02;;
32228;SDS011;18717;48.034;11.186;2023-03-12T13:28:32;9.30;;;8.77;;
32228;SDS011;18717;48.034;11.186;2023-03-12T13:31:03;9.85;;;8.30;;
32228;SDS011;18717;48.034;11.186;2023-03-12T13:36:55;8.70;;;8.00;;
32228;SDS011;18717;48.034;11.186;2023-03-12T13:39:28;9.68;;;8.80;;
32228;SDS011;18717;48.034;11.186;2023-03-12T13:41:57;9.40;;;8.48;;
32228;SDS011;18717;48.034;11.186;2023-03-12T13:44:30;9.18;;;8.38;;
32228;SDS011;18717;48.034;11.186;2023-03-12T13:47:16;8.63;;;7.82;;
32228;SDS011;18717;48.034;11.186;2023-03-12T13:49:51;9.50;;;8.70;;
32228;SDS011;18717;48.034;11.186;2023-03-12T13:54:49;17.88;;;12.82;;
32228;SDS011;18717;48.034;11.186;2023-03-12T13:57:33;8.93;;;8.32;;
32228;SDS011;18717;48.034;11.186;2023-03-12T14:00:05;8.90;;;8.30;;
32228;SDS011;18717;48.034;11.186;2023-03-12T14:02:42;9.15;;;8.25;;
32228;SDS011;18717;48.034;11.186;2023-03-12T14:05:12;8.77;;;8.10;;
32228;SDS011;18717;48.034;11.186;2023-03-12T14:10:39;8.80;;;8.15;;
32228;SDS011;18717;48.034;11.186;2023-03-12T14:13:16;9.55;;;8.75;;
32228;SDS011;18717;48.034;11.186;2023-03-12T14:15:52;9.50;;;8.73;;
32228;SDS011;18717;48.034;11.186;2023-03-12T14:18:25;8.70;;;8.18;;
32228;SDS011;18717;48.034;11.186;2023-03-12T14:20:55;8.90;;;8.25;;
32228;SDS011;18717;48.034;11.186;2023-03-12T14:23:26;9.50;;;8.77;;
32228;SDS011;18717;48.034;11.186;2023-03-12T14:25:57;8.82;;;8.43;;
32228;SDS011;18717;48.034;11.186;2023-03-12T14:28:29;9.35;;;8.52;;
32228;SDS011;18717;48.034;11.186;2023-03-12T14:30:59;8.27;;;7.78;;
32228;SDS011;18717;48.034;11.186;2023-03-12T14:33:32;8.40;;;8.00;;
32228;SDS011;18717;48.034;11.186;2023-03-12T14:36:02;9.00;;;8.50;;
32228;SDS011;18717;48.034;11.186;2023-03-12T14:38:33;8.52;;;8.23;;
32228;SDS011;18717;48.034;11.186;2023-03-12T14:41:03;8.18;;;7.75;;
32228;SDS011;18717;48.034;11.186;2023-03-12T14:43:38;8.90;;;8.07;;
32228;SDS011;18717;48.034;11.186;2023-03-12T14:46:12;8.68;;;8.02;;
32228;SDS011;18717;48.034;11.186;2023-03-12T14:48:42;8.18;;;7.78;;
32228;SDS011;18717;48.034;11.186;2023-03-12T14:51:15;8.55;;;8.00;;
32228;SDS011;18717;48.034;11.186;2023-03-12T14:53:49;8.65;;;8.15;;
32228;SDS011;18717;48.034;11.186;2023-03-12T14:56:22;8.85;;;8.35;;
32228;SDS011;18717;48.034;11.186;2023-03-12T14:58:53;9.15;;;8.43;;
32228;SDS011;18717;48.034;11.186;2023-03-12T15:01:21;8.57;;;8.18;;
32228;SDS011;18717;48.034;11.186;2023-03-12T15:03:52;8.63;;;7.80;;
32228;SDS011;18717;48.034;11.186;2023-03-12T15:06:23;9.10;;;8.60;;
32228;SDS011;18717;48.034;11.186;2023-03-12T15:08:55;8.80;;;8.32;;
32228;SDS011;18717;48.034;11.186;2023-03-12T15:11:23;8.73;;;8.30;;
32228;SDS011;18717;48.034;11.186;2023-03-12T15:13:53;9.10;;;8.60;;